sensor_id;sensor_type;location;lat;lon;timestamp;P1;durP1;ratioP1;P2;durP2;ratioP2
70733;SDS011;58320;48.804;9.252;2024-01-10T00:01:43;17.27;;;7.65;;
70733;SDS011;58320;48.804;9.252;2024-01-10T00:04:09;14.85;;;7.22;;
70733;SDS011;58320;48.804;9.252;2024-01-10T00:06:34;15.67;;;7.23;;
70733;SDS011;58320;48.804;9.252;2024-01-10T00:09:00;17.05;;;7.38;;
70733;SDS011;58320;48.804;9.252;2024-01-10T00:11:26;18.57;;;7.63;;
70733;SDS011;58320;48.804;9.252;2024-01-10T00:13:51;16.38;;;7.50;;
70733;SDS011;58320;48.804;9.252;2024-01-10T00:16:17;19.60;;;8.00;;
70733;SDS011;58320;48.804;9.252;2024-01-10T00:18:43;18.23;;;7.82;;
70733;SDS011;58320;48.804;9.252;2024-01-10T00:21:10;18.70;;;8.30;;
70733;SDS011;58320;48.804;9.252;2024-01-10T00:23:36;19.10;;;8.30;;
70733;SDS011;58320;48.804;9.252;2024-01-10T00:26:02;19.58;;;7.97;;
70733;SDS011;58320;48.804;9.252;2024-01-10T00:28:27;16.97;;;7.70;;
70733;SDS011;58320;48.804;9.252;2024-01-10T00:30:53;16.60;;;7.50;;
70733;SDS011;58320;48.804;9.252;2024-01-10T00:33:19;17.90;;;8.33;;
70733;SDS011;58320;48.804;9.252;2024-01-10T00:35:44;17.67;;;7.63;;
70733;SDS011;58320;48.804;9.252;2024-01-10T00:38:10;16.00;;;7.53;;
70733;SDS011;58320;48.804;9.252;2024-01-10T00:40:36;14.90;;;7.20;;
70733;SDS011;58320;48.804;9.252;2024-01-10T00:43:02;14.97;;;6.87;;
70733;SDS011;58320;48.804;9.252;2024-01-10T00:45:29;14.52;;;7.15;;
70733;SDS011;58320;48.804;9.252;2024-01-10T00:47:54;14.17;;;6.63;;
70733;SDS011;58320;48.804;9.252;2024-01-10T00:50:20;17.08;;;7.05;;
70733;SDS011;58320;48.804;9.252;2024-01-10T00:52:46;14.00;;;6.30;;
70733;SDS011;58320;48.804;9.252;2024-01-10T00:55:12;17.93;;;6.80;;
70733;SDS011;58320;48.804;9.252;2024-01-10T00:57:38;22.10;;;8.50;;
70733;SDS011;58320;48.804;9.252;2024-01-10T01:00:07;16.75;;;6.70;;
70733;SDS011;58320;48.804;9.252;2024-01-10T01:02:34;14.07;;;6.93;;
70733;SDS011;58320;48.804;9.252;2024-01-10T01:05:00;15.47;;;7.07;;
70733;SDS011;58320;48.804;9.252;2024-01-10T01:07:27;16.75;;;7.43;;
70733;SDS011;58320;48.804;9.252;2024-01-10T01:09:53;15.52;;;7.22;;
70733;SDS011;58320;48.804;9.252;2024-01-10T01:12:19;14.40;;;7.00;;
70733;SDS011;58320;48.804;9.252;2024-01-10T01:14:44;14.77;;;6.82;;
70733;SDS011;58320;48.804;9.252;2024-01-10T01:17:10;17.43;;;7.03;;
70733;SDS011;58320;48.804;9.252;2024-01-10T01:19:36;13.90;;;6.53;;
70733;SDS011;58320;48.804;9.252;2024-01-10T01:22:02;20.70;;;6.93;;
70733;SDS011;58320;48.804;9.252;2024-01-10T01:24:28;15.20;;;6.25;;
70733;SDS011;58320;48.804;9.252;2024-01-10T01:26:53;14.00;;;6.47;;
70733;SDS011;58320;48.804;9.252;2024-01-10T01:29:20;15.53;;;6.70;;
70733;SDS011;58320;48.804;9.252;2024-01-10T01:31:45;15.63;;;6.75;;
70733;SDS011;58320;48.804;9.252;2024-01-10T01:34:12;15.63;;;7.28;;
70733;SDS011;58320;48.804;9.252;2024-01-10T01:36:38;17.47;;;8.03;;
70733;SDS011;58320;48.804;9.252;2024-01-10T01:39:03;12.23;;;6.95;;
70733;SDS011;58320;48.804;9.252;2024-01-10T01:41:29;15.35;;;6.95;;
70733;SDS011;58320;48.804;9.252;2024-01-10T01:43:55;17.30;;;6.60;;
70733;SDS011;58320;48.804;9.252;2024-01-10T01:46:21;15.85;;;7.43;;
70733;SDS011;58320;48.804;9.252;2024-01-10T01:48:47;17.27;;;6.70;;
70733;SDS011;58320;48.804;9.252;2024-01-10T01:51:14;17.30;;;6.57;;
70733;SDS011;58320;48.804;9.252;2024-01-10T01:53:40;12.65;;;6.28;;
70733;SDS011;58320;48.804;9.252;2024-01-10T01:56:09;17.98;;;6.95;;
70733;SDS011;58320;48.804;9.252;2024-01-10T01:58:36;15.80;;;7.05;;
70733;SDS011;58320;48.804;9.252;2024-01-10T02:01:02;18.17;;;7.83;;
70733;SDS011;58320;48.804;9.252;2024-01-10T02:03:33;15.05;;;7.20;;
70733;SDS011;58320;48.804;9.252;2024-01-10T02:05:59;18.85;;;8.32;;
70733;SDS011;58320;48.804;9.252;2024-01-10T02:08:28;18.48;;;7.85;;
70733;SDS011;58320;48.804;9.252;2024-01-10T02:10:58;15.05;;;7.00;;
70733;SDS011;58320;48.804;9.252;2024-01-10T02:13:24;17.20;;;7.37;;
70733;SDS011;58320;48.804;9.252;2024-01-10T02:15:51;17.67;;;6.95;;
70733;SDS011;58320;48.804;9.252;2024-01-10T02:18:17;19.48;;;7.20;;
70733;SDS011;58320;48.804;9.252;2024-01-10T02:20:45;13.85;;;6.75;;
70733;SDS011;58320;48.804;9.252;2024-01-10T02:23:11;13.43;;;7.10;;
70733;SDS011;58320;48.804;9.252;2024-01-10T02:25:38;17.42;;;7.32;;
70733;SDS011;58320;48.804;9.252;2024-01-10T02:28:05;13.35;;;6.63;;
70733;SDS011;58320;48.804;9.252;2024-01-10T02:30:32;14.63;;;7.15;;
70733;SDS011;58320;48.804;9.252;2024-01-10T02:32:58;17.13;;;7.82;;
70733;SDS011;58320;48.804;9.252;2024-01-10T02:35:24;20.40;;;8.57;;
70733;SDS011;58320;48.804;9.252;2024-01-10T02:37:49;15.00;;;7.72;;
70733;SDS011;58320;48.804;9.252;2024-01-10T02:40:16;16.25;;;7.72;;
70733;SDS011;58320;48.804;9.252;2024-01-10T02:42:42;19.37;;;7.87;;
70733;SDS011;58320;48.804;9.252;2024-01-10T02:45:08;19.02;;;7.97;;
70733;SDS011;58320;48.804;9.252;2024-01-10T02:47:34;16.45;;;7.38;;
70733;SDS011;58320;48.804;9.252;2024-01-10T02:50:02;17.95;;;8.07;;
70733;SDS011;58320;48.804;9.252;2024-01-10T02:52:29;17.35;;;7.68;;
70733;SDS011;58320;48.804;9.252;2024-01-10T02:54:54;18.90;;;8.50;;
70733;SDS011;58320;48.804;9.252;2024-01-10T02:57:21;17.02;;;7.68;;
70733;SDS011;58320;48.804;9.252;2024-01-10T02:59:46;15.80;;;7.67;;
70733;SDS011;58320;48.804;9.252;2024-01-10T03:02:12;19.67;;;7.43;;
70733;SDS011;58320;48.804;9.252;2024-01-10T03:04:38;22.10;;;8.40;;
70733;SDS011;58320;48.804;9.252;2024-01-10T03:07:05;20.40;;;8.57;;
70733;SDS011;58320;48.804;9.252;2024-01-10T03:09:31;15.67;;;8.00;;
70733;SDS011;58320;48.804;9.252;2024-01-10T03:11:57;18.42;;;7.25;;
70733;SDS011;58320;48.804;9.252;2024-01-10T03:14:22;18.23;;;7.47;;
70733;SDS011;58320;48.804;9.252;2024-01-10T03:16:48;17.48;;;7.25;;
70733;SDS011;58320;48.804;9.252;2024-01-10T03:19:14;17.90;;;7.13;;
70733;SDS011;58320;48.804;9.252;2024-01-10T03:21:40;16.10;;;6.90;;
70733;SDS011;58320;48.804;9.252;2024-01-10T03:24:06;16.10;;;6.93;;
70733;SDS011;58320;48.804;9.252;2024-01-10T03:26:33;14.65;;;7.15;;
70733;SDS011;58320;48.804;9.252;2024-01-10T03:28:59;15.68;;;7.32;;
70733;SDS011;58320;48.804;9.252;2024-01-10T03:31:26;15.87;;;7.43;;
70733;SDS011;58320;48.804;9.252;2024-01-10T03:33:53;19.92;;;8.15;;
70733;SDS011;58320;48.804;9.252;2024-01-10T03:36:19;16.90;;;7.30;;
70733;SDS011;58320;48.804;9.252;2024-01-10T03:38:45;16.57;;;7.40;;
70733;SDS011;58320;48.804;9.252;2024-01-10T03:41:14;18.52;;;7.55;;
70733;SDS011;58320;48.804;9.252;2024-01-10T03:43:40;19.10;;;8.00;;
70733;SDS011;58320;48.804;9.252;2024-01-10T03:46:06;17.15;;;8.05;;
70733;SDS011;58320;48.804;9.252;2024-01-10T03:48:33;19.10;;;7.63;;
70733;SDS011;58320;48.804;9.252;2024-01-10T03:50:58;17.30;;;7.75;;
70733;SDS011;58320;48.804;9.252;2024-01-10T03:53:24;21.23;;;7.47;;
70733;SDS011;58320;48.804;9.252;2024-01-10T03:55:50;18.70;;;7.43;;
70733;SDS011;58320;48.804;9.252;2024-01-10T03:58:15;16.43;;;7.80;;
70733;SDS011;58320;48.804;9.252;2024-01-10T04:04:05;16.15;;;7.35;;
70733;SDS011;58320;48.804;9.252;2024-01-10T04:06:30;17.13;;;6.80;;
70733;SDS011;58320;48.804;9.252;2024-01-10T04:08:56;16.37;;;7.73;;
70733;SDS011;58320;48.804;9.252;2024-01-10T04:11:22;15.88;;;7.60;;
70733;SDS011;58320;48.804;9.252;2024-01-10T04:13:48;18.77;;;8.00;;
70733;SDS011;58320;48.804;9.252;2024-01-10T04:16:13;15.43;;;7.45;;
70733;SDS011;58320;48.804;9.252;2024-01-10T04:18:39;19.07;;;7.80;;
70733;SDS011;58320;48.804;9.252;2024-01-10T04:21:05;16.75;;;6.93;;
70733;SDS011;58320;48.804;9.252;2024-01-10T04:23:32;17.15;;;7.78;;
70733;SDS011;58320;48.804;9.252;2024-01-10T04:25:58;14.98;;;7.35;;
70733;SDS011;58320;48.804;9.252;2024-01-10T04:28:26;17.50;;;8.37;;
70733;SDS011;58320;48.804;9.252;2024-01-10T04:30:52;17.48;;;7.78;;
70733;SDS011;58320;48.804;9.252;2024-01-10T04:33:17;17.03;;;7.23;;
70733;SDS011;58320;48.804;9.252;2024-01-10T04:35:43;15.38;;;7.50;;
70733;SDS011;58320;48.804;9.252;2024-01-10T04:38:09;16.93;;;7.40;;
70733;SDS011;58320;48.804;9.252;2024-01-10T04:40:35;15.80;;;7.43;;
70733;SDS011;58320;48.804;9.252;2024-01-10T04:43:00;17.17;;;7.67;;
70733;SDS011;58320;48.804;9.252;2024-01-10T04:45:26;20.00;;;7.28;;
70733;SDS011;58320;48.804;9.252;2024-01-10T04:47:52;16.17;;;7.47;;
70733;SDS011;58320;48.804;9.252;2024-01-10T04:50:17;18.48;;;8.07;;
70733;SDS011;58320;48.804;9.252;2024-01-10T04:52:43;14.97;;;7.50;;
70733;SDS011;58320;48.804;9.252;2024-01-10T04:55:09;16.83;;;7.43;;
70733;SDS011;58320;48.804;9.252;2024-01-10T04:57:35;16.95;;;7.85;;
70733;SDS011;58320;48.804;9.252;2024-01-10T05:00:02;21.37;;;7.80;;
70733;SDS011;58320;48.804;9.252;2024-01-10T05:02:29;18.88;;;8.45;;
70733;SDS011;58320;48.804;9.252;2024-01-10T05:04:55;19.42;;;7.90;;
70733;SDS011;58320;48.804;9.252;2024-01-10T05:07:21;17.57;;;7.77;;
70733;SDS011;58320;48.804;9.252;2024-01-10T05:09:47;18.73;;;8.32;;
70733;SDS011;58320;48.804;9.252;2024-01-10T05:12:13;18.10;;;7.73;;
70733;SDS011;58320;48.804;9.252;2024-01-10T05:14:38;17.33;;;8.00;;
70733;SDS011;58320;48.804;9.252;2024-01-10T05:17:04;17.77;;;7.00;;
70733;SDS011;58320;48.804;9.252;2024-01-10T05:19:30;14.63;;;7.18;;
70733;SDS011;58320;48.804;9.252;2024-01-10T05:21:55;19.40;;;8.10;;
70733;SDS011;58320;48.804;9.252;2024-01-10T05:24:22;19.25;;;8.48;;
70733;SDS011;58320;48.804;9.252;2024-01-10T05:26:47;15.40;;;7.70;;
70733;SDS011;58320;48.804;9.252;2024-01-10T05:29:16;17.00;;;8.03;;
70733;SDS011;58320;48.804;9.252;2024-01-10T05:31:44;16.38;;;8.07;;
70733;SDS011;58320;48.804;9.252;2024-01-10T05:34:11;18.50;;;7.85;;
70733;SDS011;58320;48.804;9.252;2024-01-10T05:36:37;16.52;;;7.72;;
70733;SDS011;58320;48.804;9.252;2024-01-10T05:39:03;17.33;;;7.40;;
70733;SDS011;58320;48.804;9.252;2024-01-10T05:41:28;15.23;;;7.13;;
70733;SDS011;58320;48.804;9.252;2024-01-10T05:43:54;16.10;;;8.07;;
70733;SDS011;58320;48.804;9.252;2024-01-10T05:46:20;16.43;;;8.63;;
70733;SDS011;58320;48.804;9.252;2024-01-10T05:48:46;20.37;;;7.60;;
70733;SDS011;58320;48.804;9.252;2024-01-10T05:51:11;20.33;;;8.67;;
70733;SDS011;58320;48.804;9.252;2024-01-10T05:53:37;16.45;;;7.90;;
70733;SDS011;58320;48.804;9.252;2024-01-10T05:56:05;17.53;;;7.83;;
70733;SDS011;58320;48.804;9.252;2024-01-10T05:58:32;19.23;;;7.82;;
70733;SDS011;58320;48.804;9.252;2024-01-10T06:00:57;18.35;;;8.45;;
70733;SDS011;58320;48.804;9.252;2024-01-10T06:03:23;17.90;;;7.63;;
70733;SDS011;58320;48.804;9.252;2024-01-10T06:05:49;19.08;;;7.80;;
70733;SDS011;58320;48.804;9.252;2024-01-10T06:08:15;19.50;;;8.52;;
70733;SDS011;58320;48.804;9.252;2024-01-10T06:10:41;20.07;;;8.30;;
70733;SDS011;58320;48.804;9.252;2024-01-10T06:13:07;19.38;;;8.32;;
70733;SDS011;58320;48.804;9.252;2024-01-10T06:15:33;18.83;;;8.55;;
70733;SDS011;58320;48.804;9.252;2024-01-10T06:17:59;18.77;;;8.87;;
70733;SDS011;58320;48.804;9.252;2024-01-10T06:20:24;18.90;;;8.95;;
70733;SDS011;58320;48.804;9.252;2024-01-10T06:22:50;20.47;;;8.63;;
70733;SDS011;58320;48.804;9.252;2024-01-10T06:25:16;19.10;;;8.27;;
70733;SDS011;58320;48.804;9.252;2024-01-10T06:27:41;18.40;;;8.70;;
70733;SDS011;58320;48.804;9.252;2024-01-10T06:30:07;21.55;;;8.93;;
70733;SDS011;58320;48.804;9.252;2024-01-10T06:32:34;20.98;;;9.80;;
70733;SDS011;58320;48.804;9.252;2024-01-10T06:35:00;20.87;;;9.93;;
70733;SDS011;58320;48.804;9.252;2024-01-10T06:37:27;19.73;;;8.82;;
70733;SDS011;58320;48.804;9.252;2024-01-10T06:39:53;19.92;;;9.05;;
70733;SDS011;58320;48.804;9.252;2024-01-10T06:42:19;20.02;;;8.95;;
70733;SDS011;58320;48.804;9.252;2024-01-10T06:44:45;21.67;;;9.10;;
70733;SDS011;58320;48.804;9.252;2024-01-10T06:47:11;25.17;;;10.90;;
70733;SDS011;58320;48.804;9.252;2024-01-10T06:49:36;22.57;;;9.37;;
70733;SDS011;58320;48.804;9.252;2024-01-10T06:52:03;22.48;;;9.52;;
70733;SDS011;58320;48.804;9.252;2024-01-10T06:54:32;19.08;;;9.57;;
70733;SDS011;58320;48.804;9.252;2024-01-10T06:56:57;18.50;;;8.48;;
70733;SDS011;58320;48.804;9.252;2024-01-10T06:59:23;19.40;;;8.40;;
70733;SDS011;58320;48.804;9.252;2024-01-10T07:01:52;24.77;;;9.90;;
70733;SDS011;58320;48.804;9.252;2024-01-10T07:04:21;17.57;;;8.73;;
70733;SDS011;58320;48.804;9.252;2024-01-10T07:06:48;19.80;;;9.07;;
70733;SDS011;58320;48.804;9.252;2024-01-10T07:09:15;20.52;;;9.40;;
70733;SDS011;58320;48.804;9.252;2024-01-10T07:11:44;20.55;;;9.23;;
70733;SDS011;58320;48.804;9.252;2024-01-10T07:14:14;20.17;;;9.18;;
70733;SDS011;58320;48.804;9.252;2024-01-10T07:16:40;18.40;;;8.20;;
70733;SDS011;58320;48.804;9.252;2024-01-10T07:19:10;20.75;;;9.60;;
70733;SDS011;58320;48.804;9.252;2024-01-10T07:21:40;20.73;;;9.65;;
70733;SDS011;58320;48.804;9.252;2024-01-10T07:24:06;16.92;;;8.13;;
70733;SDS011;58320;48.804;9.252;2024-01-10T07:26:37;18.88;;;9.43;;
70733;SDS011;58320;48.804;9.252;2024-01-10T07:29:03;17.87;;;7.60;;
70733;SDS011;58320;48.804;9.252;2024-01-10T07:31:29;16.63;;;8.13;;
70733;SDS011;58320;48.804;9.252;2024-01-10T07:33:55;21.50;;;8.40;;
70733;SDS011;58320;48.804;9.252;2024-01-10T07:36:23;17.70;;;9.27;;
70733;SDS011;58320;48.804;9.252;2024-01-10T07:38:51;17.37;;;8.53;;
70733;SDS011;58320;48.804;9.252;2024-01-10T07:41:18;18.52;;;8.80;;
70733;SDS011;58320;48.804;9.252;2024-01-10T07:43:44;20.42;;;9.10;;
70733;SDS011;58320;48.804;9.252;2024-01-10T07:46:09;19.13;;;9.10;;
70733;SDS011;58320;48.804;9.252;2024-01-10T07:48:35;18.77;;;8.80;;
70733;SDS011;58320;48.804;9.252;2024-01-10T07:51:02;23.38;;;10.05;;
70733;SDS011;58320;48.804;9.252;2024-01-10T07:53:29;24.52;;;9.27;;
70733;SDS011;58320;48.804;9.252;2024-01-10T07:55:55;20.43;;;9.63;;
70733;SDS011;58320;48.804;9.252;2024-01-10T07:58:21;18.83;;;8.55;;
70733;SDS011;58320;48.804;9.252;2024-01-10T08:00:47;22.13;;;9.98;;
70733;SDS011;58320;48.804;9.252;2024-01-10T08:03:13;18.60;;;8.53;;
70733;SDS011;58320;48.804;9.252;2024-01-10T08:05:39;19.77;;;9.75;;
70733;SDS011;58320;48.804;9.252;2024-01-10T08:08:04;21.80;;;9.02;;
70733;SDS011;58320;48.804;9.252;2024-01-10T08:10:30;22.87;;;9.73;;
70733;SDS011;58320;48.804;9.252;2024-01-10T08:12:57;19.73;;;9.48;;
70733;SDS011;58320;48.804;9.252;2024-01-10T08:15:23;21.40;;;9.23;;
70733;SDS011;58320;48.804;9.252;2024-01-10T08:17:49;20.47;;;9.13;;
70733;SDS011;58320;48.804;9.252;2024-01-10T08:20:16;28.13;;;10.27;;
70733;SDS011;58320;48.804;9.252;2024-01-10T08:22:45;24.80;;;10.13;;
70733;SDS011;58320;48.804;9.252;2024-01-10T08:25:12;24.98;;;10.50;;
70733;SDS011;58320;48.804;9.252;2024-01-10T08:27:40;24.30;;;10.30;;
70733;SDS011;58320;48.804;9.252;2024-01-10T08:30:06;18.63;;;9.13;;
70733;SDS011;58320;48.804;9.252;2024-01-10T08:32:34;19.48;;;10.75;;
70733;SDS011;58320;48.804;9.252;2024-01-10T08:35:01;19.00;;;9.77;;
70733;SDS011;58320;48.804;9.252;2024-01-10T08:37:29;23.70;;;9.90;;
70733;SDS011;58320;48.804;9.252;2024-01-10T08:39:55;23.88;;;10.30;;
70733;SDS011;58320;48.804;9.252;2024-01-10T08:42:22;20.50;;;10.07;;
70733;SDS011;58320;48.804;9.252;2024-01-10T08:44:48;21.00;;;10.30;;
70733;SDS011;58320;48.804;9.252;2024-01-10T08:47:14;21.02;;;10.32;;
70733;SDS011;58320;48.804;9.252;2024-01-10T08:49:40;22.53;;;11.03;;
70733;SDS011;58320;48.804;9.252;2024-01-10T08:52:06;18.83;;;10.02;;
70733;SDS011;58320;48.804;9.252;2024-01-10T08:54:33;23.40;;;11.45;;
70733;SDS011;58320;48.804;9.252;2024-01-10T08:56:59;27.03;;;11.53;;
70733;SDS011;58320;48.804;9.252;2024-01-10T08:59:25;26.08;;;11.93;;
70733;SDS011;58320;48.804;9.252;2024-01-10T09:01:52;25.52;;;12.63;;
70733;SDS011;58320;48.804;9.252;2024-01-10T09:04:18;28.38;;;12.93;;
70733;SDS011;58320;48.804;9.252;2024-01-10T09:06:45;23.00;;;11.17;;
70733;SDS011;58320;48.804;9.252;2024-01-10T09:09:11;24.10;;;12.23;;
70733;SDS011;58320;48.804;9.252;2024-01-10T09:11:38;26.15;;;12.90;;
70733;SDS011;58320;48.804;9.252;2024-01-10T09:14:03;29.35;;;13.05;;
70733;SDS011;58320;48.804;9.252;2024-01-10T09:16:29;25.27;;;12.77;;
70733;SDS011;58320;48.804;9.252;2024-01-10T09:18:55;25.10;;;12.25;;
70733;SDS011;58320;48.804;9.252;2024-01-10T09:21:22;25.75;;;12.95;;
70733;SDS011;58320;48.804;9.252;2024-01-10T09:23:50;23.38;;;12.45;;
70733;SDS011;58320;48.804;9.252;2024-01-10T09:26:17;25.10;;;12.63;;
70733;SDS011;58320;48.804;9.252;2024-01-10T09:28:43;27.08;;;12.85;;
70733;SDS011;58320;48.804;9.252;2024-01-10T09:31:09;27.30;;;13.60;;
70733;SDS011;58320;48.804;9.252;2024-01-10T09:33:34;31.37;;;12.60;;
70733;SDS011;58320;48.804;9.252;2024-01-10T09:36:00;28.00;;;13.60;;
70733;SDS011;58320;48.804;9.252;2024-01-10T09:38:26;32.17;;;13.53;;
70733;SDS011;58320;48.804;9.252;2024-01-10T09:40:52;28.33;;;13.80;;
70733;SDS011;58320;48.804;9.252;2024-01-10T09:43:29;30.98;;;13.07;;
70733;SDS011;58320;48.804;9.252;2024-01-10T09:45:55;29.50;;;14.07;;
70733;SDS011;58320;48.804;9.252;2024-01-10T09:48:24;28.92;;;14.32;;
70733;SDS011;58320;48.804;9.252;2024-01-10T09:50:50;28.23;;;14.23;;
70733;SDS011;58320;48.804;9.252;2024-01-10T09:53:23;30.25;;;13.40;;
70733;SDS011;58320;48.804;9.252;2024-01-10T09:55:52;35.05;;;15.32;;
70733;SDS011;58320;48.804;9.252;2024-01-10T09:58:25;29.23;;;13.47;;
70733;SDS011;58320;48.804;9.252;2024-01-10T10:00:51;30.27;;;14.27;;
70733;SDS011;58320;48.804;9.252;2024-01-10T10:03:18;31.42;;;16.40;;
70733;SDS011;58320;48.804;9.252;2024-01-10T10:05:44;26.77;;;14.00;;
70733;SDS011;58320;48.804;9.252;2024-01-10T10:08:11;29.23;;;15.43;;
70733;SDS011;58320;48.804;9.252;2024-01-10T10:10:48;27.35;;;13.88;;
70733;SDS011;58320;48.804;9.252;2024-01-10T10:13:32;28.98;;;13.88;;
70733;SDS011;58320;48.804;9.252;2024-01-10T10:16:01;27.25;;;13.48;;
70733;SDS011;58320;48.804;9.252;2024-01-10T10:18:28;33.75;;;15.48;;
70733;SDS011;58320;48.804;9.252;2024-01-10T10:21:16;29.37;;;14.30;;
70733;SDS011;58320;48.804;9.252;2024-01-10T10:23:42;30.45;;;14.73;;
70733;SDS011;58320;48.804;9.252;2024-01-10T10:26:23;32.28;;;14.32;;
70733;SDS011;58320;48.804;9.252;2024-01-10T10:28:49;31.35;;;14.85;;
70733;SDS011;58320;48.804;9.252;2024-01-10T10:31:17;28.93;;;14.90;;
70733;SDS011;58320;48.804;9.252;2024-01-10T10:33:47;29.90;;;14.57;;
70733;SDS011;58320;48.804;9.252;2024-01-10T10:36:15;28.00;;;14.68;;
70733;SDS011;58320;48.804;9.252;2024-01-10T10:38:41;25.83;;;13.75;;
70733;SDS011;58320;48.804;9.252;2024-01-10T10:41:07;29.40;;;15.37;;
70733;SDS011;58320;48.804;9.252;2024-01-10T10:43:35;29.70;;;14.63;;
70733;SDS011;58320;48.804;9.252;2024-01-10T10:46:06;30.48;;;15.27;;
70733;SDS011;58320;48.804;9.252;2024-01-10T10:48:34;28.27;;;15.13;;
70733;SDS011;58320;48.804;9.252;2024-01-10T10:53:38;31.15;;;15.95;;
70733;SDS011;58320;48.804;9.252;2024-01-10T10:56:05;27.88;;;14.60;;
70733;SDS011;58320;48.804;9.252;2024-01-10T10:58:36;29.73;;;15.45;;
70733;SDS011;58320;48.804;9.252;2024-01-10T11:01:07;29.00;;;15.10;;
70733;SDS011;58320;48.804;9.252;2024-01-10T11:03:35;29.50;;;14.57;;
70733;SDS011;58320;48.804;9.252;2024-01-10T11:06:03;27.10;;;14.68;;
70733;SDS011;58320;48.804;9.252;2024-01-10T11:11:16;27.80;;;14.60;;
70733;SDS011;58320;48.804;9.252;2024-01-10T11:14:43;29.57;;;14.83;;
70733;SDS011;58320;48.804;9.252;2024-01-10T11:23:22;34.25;;;16.17;;
70733;SDS011;58320;48.804;9.252;2024-01-10T11:26:09;29.13;;;15.75;;
70733;SDS011;58320;48.804;9.252;2024-01-10T11:28:38;25.13;;;14.30;;
70733;SDS011;58320;48.804;9.252;2024-01-10T11:31:05;31.38;;;15.00;;
70733;SDS011;58320;48.804;9.252;2024-01-10T11:33:34;30.25;;;16.63;;
70733;SDS011;58320;48.804;9.252;2024-01-10T11:36:19;29.27;;;15.13;;
70733;SDS011;58320;48.804;9.252;2024-01-10T11:38:53;30.77;;;16.48;;
70733;SDS011;58320;48.804;9.252;2024-01-10T11:41:38;26.80;;;14.63;;
70733;SDS011;58320;48.804;9.252;2024-01-10T11:46:40;27.10;;;14.95;;
70733;SDS011;58320;48.804;9.252;2024-01-10T11:49:18;30.55;;;16.13;;
70733;SDS011;58320;48.804;9.252;2024-01-10T11:51:45;29.48;;;15.90;;
70733;SDS011;58320;48.804;9.252;2024-01-10T11:57:02;26.75;;;14.85;;
70733;SDS011;58320;48.804;9.252;2024-01-10T11:59:35;28.35;;;15.18;;
70733;SDS011;58320;48.804;9.252;2024-01-10T12:02:02;29.95;;;15.60;;
70733;SDS011;58320;48.804;9.252;2024-01-10T12:04:30;26.75;;;15.95;;
70733;SDS011;58320;48.804;9.252;2024-01-10T12:06:57;28.47;;;15.80;;
70733;SDS011;58320;48.804;9.252;2024-01-10T12:09:23;27.73;;;15.18;;
70733;SDS011;58320;48.804;9.252;2024-01-10T12:11:49;33.15;;;16.73;;
70733;SDS011;58320;48.804;9.252;2024-01-10T12:14:15;31.75;;;17.00;;
70733;SDS011;58320;48.804;9.252;2024-01-10T12:16:42;29.63;;;18.03;;
70733;SDS011;58320;48.804;9.252;2024-01-10T12:19:08;30.30;;;17.02;;
70733;SDS011;58320;48.804;9.252;2024-01-10T12:21:33;29.50;;;17.27;;
70733;SDS011;58320;48.804;9.252;2024-01-10T12:23:59;29.65;;;17.02;;
70733;SDS011;58320;48.804;9.252;2024-01-10T12:26:25;30.75;;;17.40;;
70733;SDS011;58320;48.804;9.252;2024-01-10T12:28:57;30.97;;;18.30;;
70733;SDS011;58320;48.804;9.252;2024-01-10T12:31:28;33.08;;;18.20;;
70733;SDS011;58320;48.804;9.252;2024-01-10T12:33:57;28.63;;;16.52;;
70733;SDS011;58320;48.804;9.252;2024-01-10T12:36:24;27.88;;;15.32;;
70733;SDS011;58320;48.804;9.252;2024-01-10T12:38:50;32.50;;;17.73;;
70733;SDS011;58320;48.804;9.252;2024-01-10T12:41:16;28.37;;;17.33;;
70733;SDS011;58320;48.804;9.252;2024-01-10T12:43:43;32.95;;;18.00;;
70733;SDS011;58320;48.804;9.252;2024-01-10T12:46:15;34.20;;;16.50;;
70733;SDS011;58320;48.804;9.252;2024-01-10T12:48:41;28.08;;;15.82;;
70733;SDS011;58320;48.804;9.252;2024-01-10T12:51:10;30.60;;;17.03;;
70733;SDS011;58320;48.804;9.252;2024-01-10T12:53:38;36.42;;;17.83;;
70733;SDS011;58320;48.804;9.252;2024-01-10T12:56:07;29.65;;;16.70;;
70733;SDS011;58320;48.804;9.252;2024-01-10T12:58:34;29.58;;;15.90;;
70733;SDS011;58320;48.804;9.252;2024-01-10T13:01:04;32.58;;;17.55;;
70733;SDS011;58320;48.804;9.252;2024-01-10T13:03:30;29.67;;;16.10;;
70733;SDS011;58320;48.804;9.252;2024-01-10T13:05:56;31.02;;;16.70;;
70733;SDS011;58320;48.804;9.252;2024-01-10T13:08:22;28.35;;;15.10;;
70733;SDS011;58320;48.804;9.252;2024-01-10T13:10:48;30.77;;;16.93;;
70733;SDS011;58320;48.804;9.252;2024-01-10T13:13:14;29.40;;;15.73;;
70733;SDS011;58320;48.804;9.252;2024-01-10T13:15:41;30.20;;;17.40;;
70733;SDS011;58320;48.804;9.252;2024-01-10T13:18:07;29.92;;;15.98;;
70733;SDS011;58320;48.804;9.252;2024-01-10T13:20:35;28.65;;;17.02;;
70733;SDS011;58320;48.804;9.252;2024-01-10T13:23:01;32.67;;;17.90;;
70733;SDS011;58320;48.804;9.252;2024-01-10T13:25:27;33.40;;;16.55;;
70733;SDS011;58320;48.804;9.252;2024-01-10T13:27:53;28.17;;;16.17;;
70733;SDS011;58320;48.804;9.252;2024-01-10T13:30:19;29.77;;;16.53;;
70733;SDS011;58320;48.804;9.252;2024-01-10T13:32:45;29.88;;;15.30;;
70733;SDS011;58320;48.804;9.252;2024-01-10T13:35:12;29.52;;;15.43;;
70733;SDS011;58320;48.804;9.252;2024-01-10T13:37:44;32.03;;;16.70;;
70733;SDS011;58320;48.804;9.252;2024-01-10T13:40:11;28.87;;;15.40;;
70733;SDS011;58320;48.804;9.252;2024-01-10T13:42:40;32.10;;;16.83;;
70733;SDS011;58320;48.804;9.252;2024-01-10T13:45:07;33.05;;;17.00;;
70733;SDS011;58320;48.804;9.252;2024-01-10T13:47:36;35.00;;;17.75;;
70733;SDS011;58320;48.804;9.252;2024-01-10T13:50:03;31.60;;;16.30;;
70733;SDS011;58320;48.804;9.252;2024-01-10T13:52:31;29.50;;;17.27;;
70733;SDS011;58320;48.804;9.252;2024-01-10T13:55:00;33.80;;;15.98;;
70733;SDS011;58320;48.804;9.252;2024-01-10T13:57:26;32.05;;;16.42;;
70733;SDS011;58320;48.804;9.252;2024-01-10T13:59:52;35.22;;;16.27;;
70733;SDS011;58320;48.804;9.252;2024-01-10T14:02:24;28.70;;;15.93;;
70733;SDS011;58320;48.804;9.252;2024-01-10T14:04:50;31.93;;;15.53;;
70733;SDS011;58320;48.804;9.252;2024-01-10T14:07:17;32.22;;;15.75;;
70733;SDS011;58320;48.804;9.252;2024-01-10T14:09:43;30.98;;;14.95;;
70733;SDS011;58320;48.804;9.252;2024-01-10T14:12:10;35.17;;;17.25;;
70733;SDS011;58320;48.804;9.252;2024-01-10T14:14:37;29.87;;;16.43;;
70733;SDS011;58320;48.804;9.252;2024-01-10T14:17:03;28.60;;;14.80;;
70733;SDS011;58320;48.804;9.252;2024-01-10T14:19:32;31.55;;;15.77;;
70733;SDS011;58320;48.804;9.252;2024-01-10T14:21:58;29.03;;;15.30;;
70733;SDS011;58320;48.804;9.252;2024-01-10T14:24:24;31.08;;;15.55;;
70733;SDS011;58320;48.804;9.252;2024-01-10T14:26:50;30.80;;;15.15;;
70733;SDS011;58320;48.804;9.252;2024-01-10T14:29:16;31.27;;;16.08;;
70733;SDS011;58320;48.804;9.252;2024-01-10T14:31:41;31.60;;;15.90;;
70733;SDS011;58320;48.804;9.252;2024-01-10T14:34:07;30.90;;;14.43;;
70733;SDS011;58320;48.804;9.252;2024-01-10T14:36:34;31.67;;;15.10;;
70733;SDS011;58320;48.804;9.252;2024-01-10T14:39:00;31.27;;;15.80;;
70733;SDS011;58320;48.804;9.252;2024-01-10T14:41:25;29.27;;;15.38;;
70733;SDS011;58320;48.804;9.252;2024-01-10T14:43:51;30.27;;;14.97;;
70733;SDS011;58320;48.804;9.252;2024-01-10T14:46:17;34.40;;;16.10;;
70733;SDS011;58320;48.804;9.252;2024-01-10T14:48:42;31.27;;;15.90;;